sensor_id;sensor_type;location;lat;lon;timestamp;P1;durP1;ratioP1;P2;durP2;ratioP2
33266;SDS011;19638;49.080;11.896;2023-01-29T00:01:58;12.80;;;6.50;;
33266;SDS011;19638;49.080;11.896;2023-01-29T00:06:03;9.20;;;6.13;;
33266;SDS011;19638;49.080;11.896;2023-01-29T00:10:07;13.40;;;6.30;;
33266;SDS011;19638;49.080;11.896;2023-01-29T00:14:11;8.60;;;6.50;;
33266;SDS011;19638;49.080;11.896;2023-01-29T00:18:16;14.30;;;7.10;;
33266;SDS011;19638;49.080;11.896;2023-01-29T00:22:19;11.67;;;6.67;;
33266;SDS011;19638;49.080;11.896;2023-01-29T00:26:28;11.63;;;7.07;;
33266;SDS011;19638;49.080;11.896;2023-01-29T00:30:34;11.77;;;7.23;;
33266;SDS011;19638;49.080;11.896;2023-01-29T00:34:41;9.73;;;6.33;;
33266;SDS011;19638;49.080;11.896;2023-01-29T00:38:44;9.90;;;6.60;;
33266;SDS011;19638;49.080;11.896;2023-01-29T00:42:55;11.80;;;6.70;;
33266;SDS011;19638;49.080;11.896;2023-01-29T00:47:19;9.60;;;5.57;;
33266;SDS011;19638;49.080;11.896;2023-01-29T00:51:35;10.13;;;5.80;;
33266;SDS011;19638;49.080;11.896;2023-01-29T00:55:39;8.73;;;5.77;;
33266;SDS011;19638;49.080;11.896;2023-01-29T00:59:46;10.93;;;6.10;;
33266;SDS011;19638;49.080;11.896;2023-01-29T01:03:49;10.90;;;6.27;;
33266;SDS011;19638;49.080;11.896;2023-01-29T01:07:56;8.43;;;4.90;;
33266;SDS011;19638;49.080;11.896;2023-01-29T01:12:00;9.30;;;5.97;;
33266;SDS011;19638;49.080;11.896;2023-01-29T01:16:07;11.37;;;6.33;;
33266;SDS011;19638;49.080;11.896;2023-01-29T01:20:15;9.77;;;6.30;;
33266;SDS011;19638;49.080;11.896;2023-01-29T01:24:21;11.20;;;5.83;;
33266;SDS011;19638;49.080;11.896;2023-01-29T01:28:24;9.13;;;5.87;;
33266;SDS011;19638;49.080;11.896;2023-01-29T01:32:27;10.73;;;5.83;;
33266;SDS011;19638;49.080;11.896;2023-01-29T01:36:30;10.60;;;6.00;;
33266;SDS011;19638;49.080;11.896;2023-01-29T01:40:42;9.57;;;5.80;;
33266;SDS011;19638;49.080;11.896;2023-01-29T01:44:52;11.40;;;6.20;;
33266;SDS011;19638;49.080;11.896;2023-01-29T01:49:03;12.23;;;6.10;;
33266;SDS011;19638;49.080;11.896;2023-01-29T01:53:14;12.23;;;6.57;;
33266;SDS011;19638;49.080;11.896;2023-01-29T01:57:22;11.57;;;6.80;;
33266;SDS011;19638;49.080;11.896;2023-01-29T02:01:37;8.70;;;5.83;;
33266;SDS011;19638;49.080;11.896;2023-01-29T02:05:43;11.43;;;6.60;;
33266;SDS011;19638;49.080;11.896;2023-01-29T02:10:04;9.60;;;6.10;;
33266;SDS011;19638;49.080;11.896;2023-01-29T02:14:16;13.53;;;7.37;;
33266;SDS011;19638;49.080;11.896;2023-01-29T02:18:23;10.00;;;6.27;;
33266;SDS011;19638;49.080;11.896;2023-01-29T02:22:28;8.20;;;5.83;;
33266;SDS011;19638;49.080;11.896;2023-01-29T02:26:58;10.27;;;6.37;;
33266;SDS011;19638;49.080;11.896;2023-01-29T02:31:11;11.00;;;6.37;;
33266;SDS011;19638;49.080;11.896;2023-01-29T02:35:27;12.37;;;6.20;;
33266;SDS011;19638;49.080;11.896;2023-01-29T02:39:39;10.33;;;5.83;;
33266;SDS011;19638;49.080;11.896;2023-01-29T02:43:47;8.17;;;5.30;;
33266;SDS011;19638;49.080;11.896;2023-01-29T02:47:59;8.47;;;5.50;;
33266;SDS011;19638;49.080;11.896;2023-01-29T02:52:08;10.23;;;5.43;;
33266;SDS011;19638;49.080;11.896;2023-01-29T02:56:20;7.47;;;5.43;;
33266;SDS011;19638;49.080;11.896;2023-01-29T03:00:29;6.03;;;4.53;;
33266;SDS011;19638;49.080;11.896;2023-01-29T03:04:40;6.90;;;4.90;;
33266;SDS011;19638;49.080;11.896;2023-01-29T03:08:49;4.40;;;3.57;;
33266;SDS011;19638;49.080;11.896;2023-01-29T03:12:59;4.77;;;3.93;;
33266;SDS011;19638;49.080;11.896;2023-01-29T03:17:08;3.63;;;3.10;;
33266;SDS011;19638;49.080;11.896;2023-01-29T03:21:14;5.23;;;3.30;;
33266;SDS011;19638;49.080;11.896;2023-01-29T03:25:41;5.20;;;3.40;;
33266;SDS011;19638;49.080;11.896;2023-01-29T03:30:04;6.10;;;3.13;;
33266;SDS011;19638;49.080;11.896;2023-01-29T03:34:28;3.63;;;3.33;;
33266;SDS011;19638;49.080;11.896;2023-01-29T03:38:40;4.43;;;3.53;;
33266;SDS011;19638;49.080;11.896;2023-01-29T03:42:48;3.60;;;3.27;;
33266;SDS011;19638;49.080;11.896;2023-01-29T03:47:01;3.93;;;3.50;;
33266;SDS011;19638;49.080;11.896;2023-01-29T03:51:16;4.20;;;3.53;;
33266;SDS011;19638;49.080;11.896;2023-01-29T03:55:29;4.97;;;3.90;;
33266;SDS011;19638;49.080;11.896;2023-01-29T03:59:40;5.30;;;3.90;;
33266;SDS011;19638;49.080;11.896;2023-01-29T04:03:51;4.07;;;3.67;;
33266;SDS011;19638;49.080;11.896;2023-01-29T04:08:04;3.93;;;3.47;;
33266;SDS011;19638;49.080;11.896;2023-01-29T04:12:20;6.07;;;4.03;;
33266;SDS011;19638;49.080;11.896;2023-01-29T04:16:28;5.30;;;3.73;;
33266;SDS011;19638;49.080;11.896;2023-01-29T04:20:40;4.20;;;3.67;;
33266;SDS011;19638;49.080;11.896;2023-01-29T04:24:44;6.17;;;4.03;;
33266;SDS011;19638;49.080;11.896;2023-01-29T04:28:56;6.00;;;4.60;;
33266;SDS011;19638;49.080;11.896;2023-01-29T04:33:20;4.50;;;4.10;;
33266;SDS011;19638;49.080;11.896;2023-01-29T04:37:37;5.67;;;3.83;;
33266;SDS011;19638;49.080;11.896;2023-01-29T04:41:51;8.20;;;4.13;;
33266;SDS011;19638;49.080;11.896;2023-01-29T04:46:02;5.20;;;4.10;;
33266;SDS011;19638;49.080;11.896;2023-01-29T04:50:20;6.10;;;4.10;;
33266;SDS011;19638;49.080;11.896;2023-01-29T04:54:35;5.00;;;4.20;;
33266;SDS011;19638;49.080;11.896;2023-01-29T04:58:53;5.77;;;4.33;;
33266;SDS011;19638;49.080;11.896;2023-01-29T05:03:02;6.30;;;4.83;;
33266;SDS011;19638;49.080;11.896;2023-01-29T05:07:09;5.83;;;4.40;;
33266;SDS011;19638;49.080;11.896;2023-01-29T05:11:17;5.60;;;4.57;;
33266;SDS011;19638;49.080;11.896;2023-01-29T05:15:22;5.30;;;4.20;;
33266;SDS011;19638;49.080;11.896;2023-01-29T05:19:28;7.60;;;4.23;;
33266;SDS011;19638;49.080;11.896;2023-01-29T05:23:31;4.30;;;3.90;;
33266;SDS011;19638;49.080;11.896;2023-01-29T05:27:35;5.37;;;4.53;;
33266;SDS011;19638;49.080;11.896;2023-01-29T05:31:56;6.37;;;4.70;;
33266;SDS011;19638;49.080;11.896;2023-01-29T05:36:01;5.83;;;4.70;;
33266;SDS011;19638;49.080;11.896;2023-01-29T05:40:07;10.63;;;4.57;;
33266;SDS011;19638;49.080;11.896;2023-01-29T05:44:14;4.90;;;4.40;;
33266;SDS011;19638;49.080;11.896;2023-01-29T05:48:18;6.57;;;4.77;;
33266;SDS011;19638;49.080;11.896;2023-01-29T05:52:25;8.93;;;5.70;;
33266;SDS011;19638;49.080;11.896;2023-01-29T05:56:32;9.80;;;5.83;;
33266;SDS011;19638;49.080;11.896;2023-01-29T06:00:35;9.67;;;5.67;;
33266;SDS011;19638;49.080;11.896;2023-01-29T06:04:38;7.43;;;5.30;;
33266;SDS011;19638;49.080;11.896;2023-01-29T06:08:43;9.37;;;5.80;;
33266;SDS011;19638;49.080;11.896;2023-01-29T06:12:46;8.53;;;6.03;;
33266;SDS011;19638;49.080;11.896;2023-01-29T06:16:51;8.50;;;5.47;;
33266;SDS011;19638;49.080;11.896;2023-01-29T06:20:58;8.50;;;5.37;;
33266;SDS011;19638;49.080;11.896;2023-01-29T06:25:08;9.07;;;6.07;;
33266;SDS011;19638;49.080;11.896;2023-01-29T06:29:14;7.80;;;5.37;;
33266;SDS011;19638;49.080;11.896;2023-01-29T06:33:22;8.73;;;5.47;;
33266;SDS011;19638;49.080;11.896;2023-01-29T06:37:25;8.17;;;5.80;;
33266;SDS011;19638;49.080;11.896;2023-01-29T06:41:30;9.90;;;5.87;;
33266;SDS011;19638;49.080;11.896;2023-01-29T06:45:33;10.03;;;5.70;;
33266;SDS011;19638;49.080;11.896;2023-01-29T06:49:39;10.97;;;6.23;;
33266;SDS011;19638;49.080;11.896;2023-01-29T06:53:42;11.00;;;6.80;;
33266;SDS011;19638;49.080;11.896;2023-01-29T06:57:48;12.73;;;6.20;;
33266;SDS011;19638;49.080;11.896;2023-01-29T07:01:51;11.00;;;6.17;;
33266;SDS011;19638;49.080;11.896;2023-01-29T07:05:54;9.00;;;6.60;;
33266;SDS011;19638;49.080;11.896;2023-01-29T07:10:02;8.97;;;6.27;;
33266;SDS011;19638;49.080;11.896;2023-01-29T07:14:07;9.77;;;6.43;;
33266;SDS011;19638;49.080;11.896;2023-01-29T07:18:10;10.77;;;6.67;;
33266;SDS011;19638;49.080;11.896;2023-01-29T07:22:18;9.57;;;6.87;;
33266;SDS011;19638;49.080;11.896;2023-01-29T07:26:24;10.10;;;6.60;;
33266;SDS011;19638;49.080;11.896;2023-01-29T07:30:29;11.03;;;7.07;;
33266;SDS011;19638;49.080;11.896;2023-01-29T07:34:32;11.57;;;6.83;;
33266;SDS011;19638;49.080;11.896;2023-01-29T07:38:35;18.50;;;7.93;;
33266;SDS011;19638;49.080;11.896;2023-01-29T07:42:39;11.60;;;7.40;;
33266;SDS011;19638;49.080;11.896;2023-01-29T07:46:45;10.23;;;6.67;;
33266;SDS011;19638;49.080;11.896;2023-01-29T07:50:53;12.67;;;7.63;;
33266;SDS011;19638;49.080;11.896;2023-01-29T07:54:58;12.60;;;6.97;;
33266;SDS011;19638;49.080;11.896;2023-01-29T07:59:02;11.37;;;7.57;;
33266;SDS011;19638;49.080;11.896;2023-01-29T08:03:08;12.57;;;7.83;;
33266;SDS011;19638;49.080;11.896;2023-01-29T08:07:14;11.97;;;7.43;;
33266;SDS011;19638;49.080;11.896;2023-01-29T08:11:17;14.17;;;7.73;;
33266;SDS011;19638;49.080;11.896;2023-01-29T08:15:20;15.17;;;8.40;;
33266;SDS011;19638;49.080;11.896;2023-01-29T08:19:24;12.87;;;7.70;;
33266;SDS011;19638;49.080;11.896;2023-01-29T08:23:28;14.53;;;7.80;;
33266;SDS011;19638;49.080;11.896;2023-01-29T08:27:31;13.63;;;8.17;;
33266;SDS011;19638;49.080;11.896;2023-01-29T08:31:38;11.23;;;7.93;;
33266;SDS011;19638;49.080;11.896;2023-01-29T08:35:48;17.30;;;8.10;;
33266;SDS011;19638;49.080;11.896;2023-01-29T08:39:52;9.40;;;6.63;;
33266;SDS011;19638;49.080;11.896;2023-01-29T08:43:55;11.17;;;7.10;;
33266;SDS011;19638;49.080;11.896;2023-01-29T08:48:03;11.13;;;7.67;;
33266;SDS011;19638;49.080;11.896;2023-01-29T08:52:11;11.50;;;7.23;;
33266;SDS011;19638;49.080;11.896;2023-01-29T08:56:14;12.73;;;8.07;;
33266;SDS011;19638;49.080;11.896;2023-01-29T09:00:18;12.13;;;7.93;;
33266;SDS011;19638;49.080;11.896;2023-01-29T09:04:21;11.73;;;7.97;;
33266;SDS011;19638;49.080;11.896;2023-01-29T09:08:26;14.53;;;8.40;;
33266;SDS011;19638;49.080;11.896;2023-01-29T09:12:29;44.90;;;22.93;;
33266;SDS011;19638;49.080;11.896;2023-01-29T09:16:32;182.57;;;75.13;;
33266;SDS011;19638;49.080;11.896;2023-01-29T09:20:38;17.27;;;11.60;;
33266;SDS011;19638;49.080;11.896;2023-01-29T09:24:43;20.83;;;12.97;;
33266;SDS011;19638;49.080;11.896;2023-01-29T09:28:46;34.53;;;23.30;;
33266;SDS011;19638;49.080;11.896;2023-01-29T09:32:50;18.90;;;11.30;;
33266;SDS011;19638;49.080;11.896;2023-01-29T09:36:55;39.33;;;19.53;;
33266;SDS011;19638;49.080;11.896;2023-01-29T09:41:05;10.67;;;7.70;;
33266;SDS011;19638;49.080;11.896;2023-01-29T09:45:24;16.80;;;11.07;;
33266;SDS011;19638;49.080;11.896;2023-01-29T09:49:30;26.33;;;15.23;;
33266;SDS011;19638;49.080;11.896;2023-01-29T09:53:38;20.90;;;11.47;;
33266;SDS011;19638;49.080;11.896;2023-01-29T09:57:51;19.47;;;10.63;;
33266;SDS011;19638;49.080;11.896;2023-01-29T10:01:59;11.47;;;7.73;;
33266;SDS011;19638;49.080;11.896;2023-01-29T10:06:21;26.40;;;16.27;;
33266;SDS011;19638;49.080;11.896;2023-01-29T10:10:35;21.53;;;15.73;;
33266;SDS011;19638;49.080;11.896;2023-01-29T10:14:50;15.73;;;9.70;;
33266;SDS011;19638;49.080;11.896;2023-01-29T10:19:25;12.13;;;7.63;;
33266;SDS011;19638;49.080;11.896;2023-01-29T10:23:38;12.57;;;9.10;;
33266;SDS011;19638;49.080;11.896;2023-01-29T10:27:49;146.20;;;106.33;;
33266;SDS011;19638;49.080;11.896;2023-01-29T10:31:59;12.20;;;8.60;;
33266;SDS011;19638;49.080;11.896;2023-01-29T10:36:07;17.50;;;9.77;;
33266;SDS011;19638;49.080;11.896;2023-01-29T10:40:17;13.13;;;7.93;;
33266;SDS011;19638;49.080;11.896;2023-01-29T10:44:25;13.47;;;8.30;;
33266;SDS011;19638;49.080;11.896;2023-01-29T10:48:43;19.40;;;10.47;;
33266;SDS011;19638;49.080;11.896;2023-01-29T10:53:04;18.37;;;10.20;;
33266;SDS011;19638;49.080;11.896;2023-01-29T10:57:22;16.40;;;9.30;;
33266;SDS011;19638;49.080;11.896;2023-01-29T11:01:39;15.77;;;9.13;;
33266;SDS011;19638;49.080;11.896;2023-01-29T11:05:46;62.87;;;26.00;;
33266;SDS011;19638;49.080;11.896;2023-01-29T11:09:55;12.07;;;8.30;;
33266;SDS011;19638;49.080;11.896;2023-01-29T11:14:04;21.23;;;14.00;;
33266;SDS011;19638;49.080;11.896;2023-01-29T11:18:13;14.43;;;8.37;;
33266;SDS011;19638;49.080;11.896;2023-01-29T11:22:19;13.30;;;8.73;;
33266;SDS011;19638;49.080;11.896;2023-01-29T11:26:32;13.57;;;8.80;;
33266;SDS011;19638;49.080;11.896;2023-01-29T11:30:37;11.53;;;8.10;;
33266;SDS011;19638;49.080;11.896;2023-01-29T11:34:55;9.67;;;7.07;;
33266;SDS011;19638;49.080;11.896;2023-01-29T11:43:32;12.80;;;8.37;;
33266;SDS011;19638;49.080;11.896;2023-01-29T11:47:35;11.50;;;7.97;;
33266;SDS011;19638;49.080;11.896;2023-01-29T11:51:39;13.63;;;9.13;;
33266;SDS011;19638;49.080;11.896;2023-01-29T11:55:44;24.63;;;14.67;;
33266;SDS011;19638;49.080;11.896;2023-01-29T11:59:55;18.67;;;11.03;;
33266;SDS011;19638;49.080;11.896;2023-01-29T12:04:14;15.60;;;8.97;;
33266;SDS011;19638;49.080;11.896;2023-01-29T12:08:21;10.67;;;8.43;;
33266;SDS011;19638;49.080;11.896;2023-01-29T12:12:30;12.73;;;8.10;;
33266;SDS011;19638;49.080;11.896;2023-01-29T12:16:37;12.23;;;7.97;;
33266;SDS011;19638;49.080;11.896;2023-01-29T12:20:51;13.10;;;8.03;;
33266;SDS011;19638;49.080;11.896;2023-01-29T12:25:00;11.47;;;7.60;;
33266;SDS011;19638;49.080;11.896;2023-01-29T12:29:16;14.70;;;7.57;;
33266;SDS011;19638;49.080;11.896;2023-01-29T12:33:32;13.03;;;7.73;;
33266;SDS011;19638;49.080;11.896;2023-01-29T12:37:47;13.43;;;7.90;;
33266;SDS011;19638;49.080;11.896;2023-01-29T12:41:54;13.93;;;8.83;;
33266;SDS011;19638;49.080;11.896;2023-01-29T12:46:02;12.73;;;8.40;;
33266;SDS011;19638;49.080;11.896;2023-01-29T12:50:13;12.93;;;8.30;;
33266;SDS011;19638;49.080;11.896;2023-01-29T12:54:25;11.10;;;7.57;;
33266;SDS011;19638;49.080;11.896;2023-01-29T12:58:35;13.83;;;7.57;;
33266;SDS011;19638;49.080;11.896;2023-01-29T13:02:51;11.20;;;7.20;;
33266;SDS011;19638;49.080;11.896;2023-01-29T13:07:01;11.50;;;7.40;;
33266;SDS011;19638;49.080;11.896;2023-01-29T13:11:13;13.67;;;9.07;;
33266;SDS011;19638;49.080;11.896;2023-01-29T13:15:23;14.60;;;8.27;;
33266;SDS011;19638;49.080;11.896;2023-01-29T13:19:35;14.03;;;8.30;;
33266;SDS011;19638;49.080;11.896;2023-01-29T13:23:44;12.27;;;7.53;;
33266;SDS011;19638;49.080;11.896;2023-01-29T13:27:54;13.73;;;8.50;;
33266;SDS011;19638;49.080;11.896;2023-01-29T13:31:57;13.57;;;8.33;;
33266;SDS011;19638;49.080;11.896;2023-01-29T13:36:06;12.53;;;7.30;;
33266;SDS011;19638;49.080;11.896;2023-01-29T13:40:18;12.67;;;7.70;;
33266;SDS011;19638;49.080;11.896;2023-01-29T13:44:26;11.77;;;7.70;;
33266;SDS011;19638;49.080;11.896;2023-01-29T13:48:33;12.80;;;7.93;;
33266;SDS011;19638;49.080;11.896;2023-01-29T13:52:44;13.43;;;8.20;;
33266;SDS011;19638;49.080;11.896;2023-01-29T13:56:57;16.67;;;7.87;;
33266;SDS011;19638;49.080;11.896;2023-01-29T14:01:02;16.60;;;7.83;;
33266;SDS011;19638;49.080;11.896;2023-01-29T14:19:14;17.83;;;7.83;;
33266;SDS011;19638;49.080;11.896;2023-01-29T14:23:22;12.83;;;8.47;;
33266;SDS011;19638;49.080;11.896;2023-01-29T14:27:32;12.07;;;7.57;;
33266;SDS011;19638;49.080;11.896;2023-01-29T14:31:45;14.27;;;8.00;;
33266;SDS011;19638;49.080;11.896;2023-01-29T14:35:50;13.17;;;8.10;;
33266;SDS011;19638;49.080;11.896;2023-01-29T14:39:57;12.67;;;7.70;;
33266;SDS011;19638;49.080;11.896;2023-01-29T14:48:51;13.13;;;8.07;;
33266;SDS011;19638;49.080;11.896;2023-01-29T14:52:57;13.00;;;7.83;;
33266;SDS011;19638;49.080;11.896;2023-01-29T14:57:15;13.37;;;8.33;;
33266;SDS011;19638;49.080;11.896;2023-01-29T15:01:21;11.63;;;7.30;;
33266;SDS011;19638;49.080;11.896;2023-01-29T15:05:30;14.43;;;7.70;;
33266;SDS011;19638;49.080;11.896;2023-01-29T15:09:41;12.00;;;7.93;;
33266;SDS011;19638;49.080;11.896;2023-01-29T15:13:49;11.43;;;6.90;;
33266;SDS011;19638;49.080;11.896;2023-01-29T15:17:58;12.60;;;7.53;;
33266;SDS011;19638;49.080;11.896;2023-01-29T15:22:11;11.13;;;7.00;;
33266;SDS011;19638;49.080;11.896;2023-01-29T15:26:16;14.27;;;8.30;;
33266;SDS011;19638;49.080;11.896;2023-01-29T15:30:21;14.30;;;8.20;;
33266;SDS011;19638;49.080;11.896;2023-01-29T15:34:30;14.83;;;8.70;;
33266;SDS011;19638;49.080;11.896;2023-01-29T15:38:35;14.50;;;7.90;;
33266;SDS011;19638;49.080;11.896;2023-01-29T15:42:42;12.93;;;7.87;;
33266;SDS011;19638;49.080;11.896;2023-01-29T15:46:52;12.83;;;7.47;;
33266;SDS011;19638;49.080;11.896;2023-01-29T15:50:58;14.70;;;8.03;;
33266;SDS011;19638;49.080;11.896;2023-01-29T15:55:08;13.10;;;8.17;;
33266;SDS011;19638;49.080;11.896;2023-01-29T15:59:17;12.47;;;7.70;;
33266;SDS011;19638;49.080;11.896;2023-01-29T16:03:29;13.60;;;8.00;;
33266;SDS011;19638;49.080;11.896;2023-01-29T16:07:35;14.23;;;7.63;;
33266;SDS011;19638;49.080;11.896;2023-01-29T16:11:40;11.90;;;7.57;;
33266;SDS011;19638;49.080;11.896;2023-01-29T16:15:52;14.43;;;8.03;;
33266;SDS011;19638;49.080;11.896;2023-01-29T16:19:59;12.83;;;7.50;;
33266;SDS011;19638;49.080;11.896;2023-01-29T16:24:05;13.50;;;7.53;;
33266;SDS011;19638;49.080;11.896;2023-01-29T16:28:14;16.07;;;8.37;;
33266;SDS011;19638;49.080;11.896;2023-01-29T16:32:19;16.50;;;8.13;;
33266;SDS011;19638;49.080;11.896;2023-01-29T16:36:29;13.97;;;8.23;;
33266;SDS011;19638;49.080;11.896;2023-01-29T16:40:33;16.07;;;8.40;;
33266;SDS011;19638;49.080;11.896;2023-01-29T16:44:44;22.67;;;9.27;;
33266;SDS011;19638;49.080;11.896;2023-01-29T16:48:52;17.30;;;8.63;;
33266;SDS011;19638;49.080;11.896;2023-01-29T16:52:56;14.93;;;7.70;;
33266;SDS011;19638;49.080;11.896;2023-01-29T16:57:03;16.53;;;9.30;;
33266;SDS011;19638;49.080;11.896;2023-01-29T17:01:09;13.70;;;8.20;;
33266;SDS011;19638;49.080;11.896;2023-01-29T17:05:16;18.30;;;8.90;;
33266;SDS011;19638;49.080;11.896;2023-01-29T17:09:24;16.37;;;9.30;;
33266;SDS011;19638;49.080;11.896;2023-01-29T17:13:33;14.23;;;8.27;;
33266;SDS011;19638;49.080;11.896;2023-01-29T17:17:54;19.43;;;10.47;;
33266;SDS011;19638;49.080;11.896;2023-01-29T17:21:57;26.70;;;12.30;;
33266;SDS011;19638;49.080;11.896;2023-01-29T17:26:10;24.33;;;11.93;;
33266;SDS011;19638;49.080;11.896;2023-01-29T17:30:18;24.87;;;12.37;;
33266;SDS011;19638;49.080;11.896;2023-01-29T17:34:26;21.03;;;10.27;;
33266;SDS011;19638;49.080;11.896;2023-01-29T17:38:29;23.80;;;10.30;;
33266;SDS011;19638;49.080;11.896;2023-01-29T17:42:33;21.63;;;11.60;;
33266;SDS011;19638;49.080;11.896;2023-01-29T17:46:47;19.30;;;10.13;;
33266;SDS011;19638;49.080;11.896;2023-01-29T17:50:53;24.87;;;12.20;;
33266;SDS011;19638;49.080;11.896;2023-01-29T17:55:02;24.10;;;12.30;;
33266;SDS011;19638;49.080;11.896;2023-01-29T17:59:07;27.93;;;14.03;;
33266;SDS011;19638;49.080;11.896;2023-01-29T18:03:18;22.07;;;11.70;;
33266;SDS011;19638;49.080;11.896;2023-01-29T18:07:24;35.97;;;16.87;;
33266;SDS011;19638;49.080;11.896;2023-01-29T18:11:29;161.57;;;61.73;;
33266;SDS011;19638;49.080;11.896;2023-01-29T18:15:33;91.53;;;44.43;;
33266;SDS011;19638;49.080;11.896;2023-01-29T18:19:39;150.93;;;70.43;;
33266;SDS011;19638;49.080;11.896;2023-01-29T18:23:45;76.77;;;31.63;;
33266;SDS011;19638;49.080;11.896;2023-01-29T18:27:48;1012.17;;;295.53;;
33266;SDS011;19638;49.080;11.896;2023-01-29T18:31:56;656.07;;;175.73;;
33266;SDS011;19638;49.080;11.896;2023-01-29T18:36:03;1999.90;;;669.07;;
33266;SDS011;19638;49.080;11.896;2023-01-29T18:40:10;621.87;;;192.73;;
33266;SDS011;19638;49.080;11.896;2023-01-29T18:44:17;1999.90;;;469.50;;
33266;SDS011;19638;49.080;11.896;2023-01-29T18:48:20;1296.63;;;451.03;;
33266;SDS011;19638;49.080;11.896;2023-01-29T18:52:26;179.67;;;92.30;;
33266;SDS011;19638;49.080;11.896;2023-01-29T18:56:31;64.70;;;30.50;;
33266;SDS011;19638;49.080;11.896;2023-01-29T19:01:01;63.07;;;30.23;;
33266;SDS011;19638;49.080;11.896;2023-01-29T19:05:10;34.97;;;16.87;;
33266;SDS011;19638;49.080;11.896;2023-01-29T19:09:13;27.97;;;13.03;;
33266;SDS011;19638;49.080;11.896;2023-01-29T19:13:18;24.43;;;11.53;;
33266;SDS011;19638;49.080;11.896;2023-01-29T19:17:21;20.67;;;10.77;;
33266;SDS011;19638;49.080;11.896;2023-01-29T19:21:27;23.53;;;10.20;;
33266;SDS011;19638;49.080;11.896;2023-01-29T19:25:36;23.53;;;10.53;;
33266;SDS011;19638;49.080;11.896;2023-01-29T19:29:41;22.20;;;10.43;;
33266;SDS011;19638;49.080;11.896;2023-01-29T19:33:44;21.73;;;10.53;;
33266;SDS011;19638;49.080;11.896;2023-01-29T19:37:47;24.30;;;10.93;;
33266;SDS011;19638;49.080;11.896;2023-01-29T19:41:54;21.20;;;10.93;;
33266;SDS011;19638;49.080;11.896;2023-01-29T19:45:58;21.90;;;10.93;;
33266;SDS011;19638;49.080;11.896;2023-01-29T19:50:05;21.90;;;11.00;;
33266;SDS011;19638;49.080;11.896;2023-01-29T19:54:20;24.80;;;10.77;;
33266;SDS011;19638;49.080;11.896;2023-01-29T19:58:23;25.53;;;10.83;;
33266;SDS011;19638;49.080;11.896;2023-01-29T20:02:30;24.23;;;11.83;;
33266;SDS011;19638;49.080;11.896;2023-01-29T20:06:35;31.77;;;13.03;;
33266;SDS011;19638;49.080;11.896;2023-01-29T20:10:39;26.83;;;13.07;;
33266;SDS011;19638;49.080;11.896;2023-01-29T20:14:46;24.03;;;11.47;;
33266;SDS011;19638;49.080;11.896;2023-01-29T20:18:53;22.60;;;11.33;;
33266;SDS011;19638;49.080;11.896;2023-01-29T20:23:16;26.43;;;11.93;;
33266;SDS011;19638;49.080;11.896;2023-01-29T20:27:37;28.87;;;12.83;;
33266;SDS011;19638;49.080;11.896;2023-01-29T20:31:40;28.97;;;12.90;;
33266;SDS011;19638;49.080;11.896;2023-01-29T20:35:44;24.93;;;12.07;;
33266;SDS011;19638;49.080;11.896;2023-01-29T20:39:54;27.20;;;12.27;;
33266;SDS011;19638;49.080;11.896;2023-01-29T20:43:59;26.67;;;12.83;;
33266;SDS011;19638;49.080;11.896;2023-01-29T20:48:02;29.97;;;12.70;;
33266;SDS011;19638;49.080;11.896;2023-01-29T20:52:08;26.00;;;12.73;;
33266;SDS011;19638;49.080;11.896;2023-01-29T20:56:12;28.13;;;12.70;;
33266;SDS011;19638;49.080;11.896;2023-01-29T21:00:19;28.30;;;13.23;;
33266;SDS011;19638;49.080;11.896;2023-01-29T21:04:25;28.23;;;14.20;;
33266;SDS011;19638;49.080;11.896;2023-01-29T21:08:33;26.47;;;12.57;;
33266;SDS011;19638;49.080;11.896;2023-01-29T21:12:39;28.27;;;12.63;;
33266;SDS011;19638;49.080;11.896;2023-01-29T21:16:43;34.83;;;14.10;;
33266;SDS011;19638;49.080;11.896;2023-01-29T21:20:47;31.00;;;14.43;;
33266;SDS011;19638;49.080;11.896;2023-01-29T21:24:52;31.97;;;14.03;;
33266;SDS011;19638;49.080;11.896;2023-01-29T21:28:59;29.43;;;13.03;;
33266;SDS011;19638;49.080;11.896;2023-01-29T21:33:06;30.60;;;13.17;;
33266;SDS011;19638;49.080;11.896;2023-01-29T21:37:09;29.67;;;12.73;;
33266;SDS011;19638;49.080;11.896;2023-01-29T21:41:17;29.03;;;12.87;;
33266;SDS011;19638;49.080;11.896;2023-01-29T21:45:41;44.23;;;17.53;;
33266;SDS011;19638;49.080;11.896;2023-01-29T21:49:44;28.63;;;14.63;;
33266;SDS011;19638;49.080;11.896;2023-01-29T21:53:48;32.43;;;14.33;;
33266;SDS011;19638;49.080;11.896;2023-01-29T21:58:01;32.67;;;14.17;;
33266;SDS011;19638;49.080;11.896;2023-01-29T22:02:04;33.10;;;15.07;;
33266;SDS011;19638;49.080;11.896;2023-01-29T22:06:14;30.13;;;13.80;;
33266;SDS011;19638;49.080;11.896;2023-01-29T22:10:20;34.57;;;14.67;;
33266;SDS011;19638;49.080;11.896;2023-01-29T22:14:25;23.70;;;11.40;;
33266;SDS011;19638;49.080;11.896;2023-01-29T22:18:31;31.70;;;15.50;;
33266;SDS011;19638;49.080;11.896;2023-01-29T22:22:35;33.17;;;16.10;;
33266;SDS011;19638;49.080;11.896;2023-01-29T22:26:38;38.93;;;16.43;;
33266;SDS011;19638;49.080;11.896;2023-01-29T22:30:47;41.63;;;16.47;;
33266;SDS011;19638;49.080;11.896;2023-01-29T22:34:50;32.30;;;15.33;;
33266;SDS011;19638;49.080;11.896;2023-01-29T22:38:54;33.90;;;14.43;;
33266;SDS011;19638;49.080;11.896;2023-01-29T22:42:58;36.10;;;15.17;;
33266;SDS011;19638;49.080;11.896;2023-01-29T22:47:08;30.03;;;13.63;;
33266;SDS011;19638;49.080;11.896;2023-01-29T22:51:11;31.30;;;12.63;;
33266;SDS011;19638;49.080;11.896;2023-01-29T22:55:17;27.50;;;12.67;;
33266;SDS011;19638;49.080;11.896;2023-01-29T22:59:20;34.27;;;15.17;;
33266;SDS011;19638;49.080;11.896;2023-01-29T23:03:32;34.47;;;16.13;;
33266;SDS011;19638;49.080;11.896;2023-01-29T23:07:36;37.90;;;16.40;;
33266;SDS011;19638;49.080;11.896;2023-01-29T23:11:39;36.13;;;14.93;;
33266;SDS011;19638;49.080;11.896;2023-01-29T23:15:44;35.67;;;16.07;;
33266;SDS011;19638;49.080;11.896;2023-01-29T23:19:50;34.90;;;15.97;;
33266;SDS011;19638;49.080;11.896;2023-01-29T23:23:53;34.97;;;15.13;;
33266;SDS011;19638;49.080;11.896;2023-01-29T23:28:00;37.10;;;15.63;;
33266;SDS011;19638;49.080;11.896;2023-01-29T23:32:04;37.17;;;16.60;;
33266;SDS011;19638;49.080;11.896;2023-01-29T23:36:09;37.13;;;15.63;;
33266;SDS011;19638;49.080;11.896;2023-01-29T23:40:16;37.63;;;15.37;;
33266;SDS011;19638;49.080;11.896;2023-01-29T23:44:19;41.73;;;16.57;;
33266;SDS011;19638;49.080;11.896;2023-01-29T23:48:26;39.00;;;17.23;;
33266;SDS011;19638;49.080;11.896;2023-01-29T23:52:31;38.00;;;16.07;;
33266;SDS011;19638;49.080;11.896;2023-01-29T23:56:34;39.67;;;17.07;;
